Time;durP1;ratioP1;P1;durP2;ratioP2;P2;SDS_P1;SDS_P2;PMS_P1;PMS_P2;Temp;Humidity;BMP_temperature;BMP_pressure;BME280_temperature;BME280_humidity;BME280_pressure;Samples;Min_cycle;Max_cycle;Signal;HPM_P1;HPM_P2
2021/11/26 00:02:55;;;;;;;50.65;29.40;;;;;;;0.87;100.00;98715.84;4976759;28;20435;-76
2021/11/26 00:05:40;;;;;;;49.97;29.48;;;;;;;0.90;100.00;98710.69;4985198;28;20045;-76
2021/11/26 00:08:24;;;;;;;54.60;30.55;;;;;;;0.79;100.00;98698.72;4965421;28;20075;-76
2021/11/26 00:11:09;;;;;;;46.42;28.25;;;;;;;0.81;100.00;98697.81;4980013;28;20063;-76
2021/11/26 00:14:03;;;;;;;47.20;28.33;;;;;;;0.73;100.00;98680.69;4979138;28;20039;-76
2021/11/26 00:16:54;;;;;;;45.65;26.80;;;;;;;0.73;100.00;98685.84;4979475;28;20072;-76
2021/11/26 00:19:38;;;;;;;47.58;28.90;;;;;;;0.74;100.00;98710.75;4979720;28;20046;-76
2021/11/26 00:22:23;;;;;;;48.85;29.15;;;;;;;0.81;100.00;98710.72;4979047;28;20376;-76
2021/11/26 00:25:08;;;;;;;52.15;29.95;;;;;;;0.69;100.00;98692.72;4979890;28;20089;-76
2021/11/26 00:27:52;;;;;;;60.70;30.95;;;;;;;0.78;100.00;98710.75;4979478;28;20450;-76
2021/11/26 00:30:37;;;;;;;58.92;30.13;;;;;;;0.91;100.00;98706.38;4979695;28;20129;-76
2021/11/26 00:33:24;;;;;;;57.25;31.02;;;;;;;0.81;100.00;98702.13;4978992;28;20065;-76
2021/11/26 00:36:09;;;;;;;51.88;28.67;;;;;;;0.63;100.00;98682.44;4979034;28;20118;-76
2021/11/26 00:38:53;;;;;;;49.15;27.73;;;;;;;0.68;100.00;98681.56;4979484;28;20058;-76
2021/11/26 00:41:37;;;;;;;49.45;27.70;;;;;;;0.54;100.00;98677.31;4978575;28;20046;-76
2021/11/26 00:44:22;;;;;;;44.17;23.90;;;;;;;0.61;100.00;98658.38;4979665;28;20129;-76
2021/11/26 00:47:06;;;;;;;46.00;25.75;;;;;;;0.49;100.00;98659.28;4979568;28;20042;-76
2021/11/26 00:49:51;;;;;;;39.47;24.08;;;;;;;0.55;100.00;98684.16;4978447;28;20039;-76
2021/11/26 00:52:35;;;;;;;44.53;24.83;;;;;;;0.49;100.00;98672.19;4979292;28;20078;-76
2021/11/26 00:55:20;;;;;;;43.30;23.83;;;;;;;0.41;100.00;98668.75;4979138;28;20431;-76
2021/11/26 00:58:04;;;;;;;46.28;26.45;;;;;;;0.36;100.00;98668.78;4978974;28;20047;-76
2021/11/26 01:00:49;;;;;;;40.28;23.35;;;;;;;0.30;100.00;98670.50;4979077;28;20038;-76
2021/11/26 01:03:34;;;;;;;41.13;24.60;;;;;;;0.32;100.00;98666.19;4978287;28;20443;-76
2021/11/26 01:06:18;;;;;;;40.92;23.77;;;;;;;0.21;100.00;98663.63;4979184;28;20355;-76
2021/11/26 01:09:03;;;;;;;41.78;23.63;;;;;;;0.20;100.00;98664.50;4998177;28;20054;-76
2021/11/26 01:11:47;;;;;;;41.92;22.80;;;;;;;-0.13;100.00;98637.94;4983643;28;20362;-76
2021/11/26 01:14:32;;;;;;;41.35;24.08;;;;;;;-0.03;100.00;98655.09;4983788;28;20043;-76
2021/11/26 01:17:16;;;;;;;41.45;23.85;;;;;;;-0.06;100.00;98664.53;4997987;28;20046;-76
2021/11/26 01:20:00;;;;;;;40.95;23.38;;;;;;;-0.10;100.00;98666.25;4998052;28;20066;-76
2021/11/26 01:22:45;;;;;;;39.70;24.80;;;;;;;-0.28;100.00;98653.38;4983702;28;20057;-76
2021/11/26 01:25:30;;;;;;;39.45;23.35;;;;;;;-0.27;100.00;98667.97;4997996;28;20046;-76
2021/11/26 01:28:15;;;;;;;40.75;22.55;;;;;;;-0.27;100.00;98658.50;4983124;28;20038;-76
2021/11/26 01:30:59;;;;;;;42.20;23.70;;;;;;;-0.36;100.00;98634.50;4983458;28;20058;-76
2021/11/26 01:33:45;;;;;;;44.08;25.95;;;;;;;-0.50;100.00;98603.63;4983253;28;20049;-76
2021/11/26 01:36:30;;;;;;;45.45;25.25;;;;;;;-0.47;100.00;98642.22;4983428;28;20050;-76
2021/11/26 01:39:15;;;;;;;41.22;22.83;;;;;;;-0.27;100.00;98643.06;4983203;28;20046;-76
2021/11/26 01:41:59;;;;;;;38.85;24.52;;;;;;;-0.31;100.00;98620.78;4983102;28;20455;-76
2021/11/26 01:44:43;;;;;;;40.13;23.75;;;;;;;-0.22;100.00;98624.22;4983370;28;20101;-76
2021/11/26 01:47:27;;;;;;;42.97;24.75;;;;;;;-0.19;100.00;98617.34;4997625;28;20050;-76
2021/11/26 01:50:14;;;;;;;41.28;23.98;;;;;;;-0.08;100.00;98632.78;4983401;28;20042;-76
2021/11/26 01:52:58;;;;;;;48.45;26.05;;;;;;;0.03;100.00;98631.03;4983085;28;20046;-76
2021/11/26 01:55:42;;;;;;;47.72;27.55;;;;;;;0.03;100.00;98602.72;4969380;28;20109;-76
2021/11/26 01:58:27;;;;;;;44.67;25.75;;;;;;;-0.05;100.00;98615.59;4997332;28;20054;-76
2021/11/26 02:01:12;;;;;;;42.47;25.05;;;;;;;0.05;100.00;98629.31;4969288;28;20431;-76
2021/11/26 02:03:57;;;;;;;41.67;23.60;;;;;;;0.08;100.00;98619.03;4982992;28;20042;-76
2021/11/26 02:06:41;;;;;;;43.85;24.27;;;;;;;0.15;100.00;98620.72;4982772;28;20054;-76
2021/11/26 02:09:25;;;;;;;40.83;23.95;;;;;;;0.02;100.00;98618.19;4997075;28;20108;-76
2021/11/26 02:12:10;;;;;;;40.95;24.30;;;;;;;0.08;100.00;98610.44;4966483;28;20109;-76
2021/11/26 02:14:54;;;;;;;42.72;25.05;;;;;;;0.11;100.00;98613.00;4982555;28;20038;-76
2021/11/26 02:17:39;;;;;;;43.97;25.58;;;;;;;0.08;100.00;98610.44;4969409;28;20045;-76
2021/11/26 02:20:27;;;;;;;47.78;25.63;;;;;;;0.10;100.00;98608.69;4982607;28;20042;-76
2021/11/26 02:23:12;;;;;;;50.67;27.30;;;;;;;0.14;100.00;98611.28;4982885;28;20050;-76
2021/11/26 02:25:56;;;;;;;52.88;27.83;;;;;;;0.14;100.00;98605.28;4997143;28;20121;-76
2021/11/26 02:28:42;;;;;;;52.75;28.70;;;;;;;0.12;100.00;98609.56;4996941;28;20093;-76
2021/11/26 02:31:25;;;;;;;48.35;28.23;;;;;;;0.15;100.00;98613.00;4968651;28;20053;-76
2021/11/26 02:34:11;;;;;;;50.67;28.85;;;;;;;0.12;100.00;98601.84;4982264;28;20054;-76
2021/11/26 02:36:55;;;;;;;49.95;27.33;;;;;;;0.13;100.00;98573.53;4969066;28;20097;-76
2021/11/26 02:39:39;;;;;;;49.90;28.98;;;;;;;0.18;100.00;98586.38;4996533;28;20046;-76
2021/11/26 02:42:25;;;;;;;50.53;28.30;;;;;;;0.24;100.00;98558.03;4966190;28;20054;-76
2021/11/26 02:45:12;;;;;;;51.90;29.85;;;;;;;0.24;100.00;98568.34;4966394;28;20058;-76
2021/11/26 02:47:56;;;;;;;50.80;29.40;;;;;;;0.25;100.00;98562.31;4982456;28;20048;-76
2021/11/26 02:50:46;;;;;;;50.47;28.10;;;;;;;0.28;100.00;98577.75;4996724;28;20069;-76
2021/11/26 02:53:31;;;;;;;51.75;28.42;;;;;;;0.28;100.00;98564.88;4996647;28;20053;-76
2021/11/26 02:56:16;;;;;;;46.40;27.73;;;;;;;0.27;100.00;98559.75;4982260;28;20042;-76
2021/11/26 02:59:00;;;;;;;48.67;28.05;;;;;;;0.26;100.00;98543.44;4996698;28;20058;-76
2021/11/26 03:01:45;;;;;;;49.22;27.45;;;;;;;0.35;100.00;98565.72;4982301;28;20050;-76
2021/11/26 03:04:29;;;;;;;50.50;27.42;;;;;;;0.33;100.00;98555.44;4996667;28;20047;-76
2021/11/26 03:07:13;;;;;;;47.08;26.58;;;;;;;0.38;100.00;98551.09;4996557;28;20062;-76
2021/11/26 03:09:58;;;;;;;46.22;27.77;;;;;;;0.44;100.00;98573.41;4979519;28;20120;-76
2021/11/26 03:12:48;;;;;;;52.33;30.73;;;;;;;0.45;100.00;98573.38;4996249;28;20043;-76
2021/11/26 03:15:36;;;;;;;46.75;28.27;;;;;;;0.43;100.00;98574.28;4982040;28;20081;-76
2021/11/26 03:18:22;;;;;;;50.47;29.67;;;;;;;0.41;100.00;98563.13;4982005;28;20077;-76
2021/11/26 03:21:06;;;;;;;48.75;27.42;;;;;;;0.52;100.00;98561.38;4996462;28;20061;-76
2021/11/26 03:23:52;;;;;;;55.03;30.23;;;;;;;0.35;100.00;98545.97;4968390;28;20038;-76
2021/11/26 03:26:36;;;;;;;49.55;27.45;;;;;;;0.44;100.00;98533.03;4996204;28;20066;-76
2021/11/26 03:29:21;;;;;;;52.63;28.88;;;;;;;0.45;100.00;98545.06;4982094;28;20109;-76
2021/11/26 03:32:06;;;;;;;54.15;30.35;;;;;;;0.47;100.00;98542.47;4981587;28;20047;-76
2021/11/26 03:34:51;;;;;;;53.90;28.58;;;;;;;0.50;100.00;98534.75;4981891;28;20046;-76
2021/11/26 03:37:35;;;;;;;51.88;28.88;;;;;;;0.57;100.00;98528.69;4981842;28;20100;-76
2021/11/26 03:40:22;;;;;;;54.13;30.95;;;;;;;0.50;100.00;98516.72;4981955;28;20046;-76
2021/11/26 03:43:07;;;;;;;65.03;32.72;;;;;;;0.46;100.00;98487.53;4981805;28;20056;-76
2021/11/26 03:45:51;;;;;;;71.25;37.05;;;;;;;0.69;100.00;98530.34;4968028;28;20038;-76
2021/11/26 03:48:35;;;;;;;83.55;43.30;;;;;;;0.61;100.00;98530.38;4979132;28;20144;-76
2021/11/26 03:51:19;;;;;;;80.38;41.95;;;;;;;0.59;100.00;98521.81;4996390;28;20439;-76
2021/11/26 03:54:03;;;;;;;66.88;36.17;;;;;;;0.50;100.00;98511.56;4969188;28;20141;-76
2021/11/26 03:56:48;;;;;;;57.30;31.45;;;;;;;0.69;100.00;98522.63;4999706;28;20039;-76
2021/11/26 03:59:32;;;;;;;57.53;31.35;;;;;;;0.67;100.00;98522.63;4999708;28;20100;-76
2021/11/26 04:02:17;;;;;;;54.13;29.33;;;;;;;0.57;100.00;98494.34;4985604;28;20065;-76
2021/11/26 04:05:02;;;;;;;52.55;29.27;;;;;;;0.63;100.00;98513.19;4982566;28;20109;-76
2021/11/26 04:07:47;;;;;;;59.80;33.50;;;;;;;0.59;100.00;98502.94;4984803;28;20050;-76
2021/11/26 04:10:31;;;;;;;58.80;33.50;;;;;;;0.54;100.00;98505.50;4999760;28;20050;-76
2021/11/26 04:13:18;;;;;;;63.75;35.85;;;;;;;0.60;100.00;98502.06;4984989;28;20446;-76
2021/11/26 04:16:05;;;;;;;62.38;35.58;;;;;;;0.52;100.00;98493.50;4999593;28;20474;-77
2021/11/26 04:18:50;;;;;;;62.10;36.00;;;;;;;0.55;100.00;98508.94;4984887;28;20046;-76
2021/11/26 04:21:34;;;;;;;58.28;32.65;;;;;;;0.66;100.00;98496.88;4999202;28;20050;-76
2021/11/26 04:24:18;;;;;;;47.92;28.50;;;;;;;0.54;100.00;98491.78;4999197;28;20043;-76
2021/11/26 04:27:03;;;;;;;47.03;27.80;;;;;;;0.55;100.00;98496.91;4982586;28;20054;-77
2021/11/26 04:29:47;;;;;;;47.75;27.70;;;;;;;0.63;100.00;98492.56;4971151;28;20058;-77
2021/11/26 04:32:31;;;;;;;50.58;29.17;;;;;;;0.44;100.00;98476.38;4984458;28;20038;-77
2021/11/26 04:35:17;;;;;;;45.30;27.38;;;;;;;0.58;100.00;98489.16;4982087;28;20054;-77
2021/11/26 04:38:01;;;;;;;47.45;26.33;;;;;;;0.67;100.00;98480.53;4999127;28;20406;-77
2021/11/26 04:40:46;;;;;;;45.05;26.08;;;;;;;0.58;100.00;98472.84;4998885;28;20387;-77
2021/11/26 04:43:30;;;;;;;52.08;27.98;;;;;;;0.71;100.00;98487.38;4984566;28;20054;-77
2021/11/26 04:46:15;;;;;;;49.97;26.38;;;;;;;0.64;100.00;98463.34;4984307;28;20050;-77
2021/11/26 04:48:59;;;;;;;53.22;29.48;;;;;;;0.72;100.00;98504.56;4984367;28;20066;-77
2021/11/26 04:51:43;;;;;;;53.78;28.45;;;;;;;0.52;100.00;98462.56;4967957;28;20043;-77
2021/11/26 04:54:27;;;;;;;49.60;27.23;;;;;;;0.64;100.00;98473.66;4984191;28;20046;-77
2021/11/26 04:57:12;;;;;;;47.85;26.70;;;;;;;0.80;100.00;98487.31;4998614;28;20070;-77
2021/11/26 04:59:56;;;;;;;43.53;25.15;;;;;;;0.79;100.00;98484.75;4998555;28;20039;-77
2021/11/26 05:02:41;;;;;;;45.45;26.63;;;;;;;0.67;100.00;98465.91;4984144;28;20511;-77
2021/11/26 05:05:26;;;;;;;44.30;24.05;;;;;;;0.80;100.00;98471.00;4983389;28;20049;-76
2021/11/26 05:08:15;;;;;;;44.53;23.85;;;;;;;0.61;100.00;98447.06;4998164;28;20117;-77
2021/11/26 05:10:59;;;;;;;41.85;23.85;;;;;;;0.67;100.00;98452.19;4998441;28;20046;-77
2021/11/26 05:13:48;;;;;;;41.83;25.85;;;;;;;0.82;100.00;98461.53;5285592;23;20062;-83
2021/11/26 05:16:36;;;;;;;40.53;22.85;;;;;;;0.65;100.00;98420.41;5018012;28;20057;-84
2021/11/26 05:19:38;;;;;;;39.63;23.77;;;;;;;0.43;100.00;98409.41;6128163;23;20012;31
2021/11/26 05:22:39;;;;;;;41.35;23.70;;;;;;;0.52;100.00;98408.47;4922106;29;20035;-83
2021/11/26 05:26:25;;;;;;;44.92;25.75;;;;;;;0.80;100.00;98447.78;4912936;29;20040;-84
2021/11/26 05:30:39;;;;;;;48.33;24.02;;;;;;;0.83;100.00;98438.31;4920907;29;20042;-84
2021/11/26 05:42:03;;;;;;;42.80;24.35;;;;;;;0.68;100.00;98408.38;4884319;29;20065;-83
2021/11/26 05:47:53;;;;;;;41.17;23.73;;;;;;;0.53;100.00;98416.19;4940207;28;20060;-84
2021/11/26 05:50:42;;;;;;;42.90;25.25;;;;;;;0.64;100.00;98423.84;4900065;29;20075;-83
2021/11/26 05:53:44;;;;;;;43.83;24.10;;;;;;;0.51;100.00;98396.47;4942500;28;20063;-83
2021/11/26 05:56:37;;;;;;;43.60;24.67;;;;;;;0.41;100.00;98393.94;4929581;29;20614;-83
2021/11/26 05:59:24;;;;;;;44.83;24.00;;;;;;;0.68;100.00;98410.06;4926012;29;20096;-83
2021/11/26 06:02:08;;;;;;;45.53;25.52;;;;;;;0.83;100.00;98430.56;4928452;29;20032;-83
2021/11/26 06:04:54;;;;;;;54.17;29.38;;;;;;;0.66;100.00;98394.63;4928411;29;20060;-83
2021/11/26 06:07:40;;;;;;;59.13;30.77;;;;;;;0.66;100.00;98393.78;4912442;29;20060;-83
2021/11/26 06:10:29;;;;;;;62.83;35.95;;;;;;;0.78;100.00;98411.72;4927932;28;20043;-83
2021/11/26 06:13:16;;;;;;;92.88;55.58;;;;;;;0.81;100.00;98391.06;4928074;29;20032;-83
2021/11/26 06:16:03;;;;;;;68.80;41.50;;;;;;;0.71;100.00;98384.28;4941418;28;20031;-83
2021/11/26 06:19:00;;;;;;;61.47;32.42;;;;;;;0.96;100.00;98415.00;4906343;29;20068;-78
2021/11/26 06:21:45;;;;;;;52.65;28.80;;;;;;;1.05;100.00;98431.25;4920022;29;20111;-74
2021/11/26 06:24:29;;;;;;;55.25;28.92;;;;;;;1.11;100.00;98430.34;4918682;29;20040;-74
2021/11/26 06:27:13;;;;;;;48.33;26.27;;;;;;;1.08;100.00;98435.53;4905712;29;20079;-74
2021/11/26 06:29:57;;;;;;;47.22;26.88;;;;;;;1.05;100.00;98425.25;4905996;29;20043;-74
2021/11/26 06:32:45;;;;;;;43.80;26.33;;;;;;;0.93;100.00;98431.34;4906190;29;20044;-74
2021/11/26 06:35:29;;;;;;;43.95;25.05;;;;;;;0.94;100.00;98422.75;4918301;29;20062;-75
2021/11/26 06:38:13;;;;;;;54.45;29.30;;;;;;;0.97;100.00;98429.59;4918293;29;20059;-74
2021/11/26 06:40:58;;;;;;;55.75;29.25;;;;;;;0.95;100.00;98433.94;4904130;29;20040;-75
2021/11/26 06:43:42;;;;;;;56.67;30.30;;;;;;;0.92;100.00;98437.38;4918013;29;20040;-74
2021/11/26 06:46:27;;;;;;;54.85;29.25;;;;;;;0.95;100.00;98421.03;4917865;29;20051;-75
2021/11/26 06:49:11;;;;;;;57.30;30.33;;;;;;;0.99;100.00;98433.88;4918404;29;20445;-75
2021/11/26 06:51:55;;;;;;;59.70;31.38;;;;;;;0.98;100.00;98426.19;4904175;29;20574;-75
2021/11/26 06:54:39;;;;;;;63.75;34.25;;;;;;;0.92;100.00;98415.03;4901928;29;20076;-74
2021/11/26 06:57:24;;;;;;;62.30;33.65;;;;;;;0.98;100.00;98418.44;4905576;29;20342;-75
2021/11/26 07:00:12;;;;;;;57.72;31.00;;;;;;;1.04;100.00;98411.50;4906296;29;20040;-74
2021/11/26 07:02:56;;;;;;;60.95;30.73;;;;;;;0.98;100.00;98418.44;4905921;29;20130;-74
2021/11/26 07:05:41;;;;;;;64.78;32.80;;;;;;;1.11;100.00;98413.16;4906269;29;20048;-74
2021/11/26 07:08:25;;;;;;;74.55;36.33;;;;;;;1.20;100.00;98396.72;4906242;29;20076;-74
2021/11/26 07:11:09;;;;;;;70.65;34.72;;;;;;;1.18;100.00;98401.06;4920239;29;20040;-74
2021/11/26 07:13:54;;;;;;;73.65;37.25;;;;;;;1.22;100.00;98400.16;4922005;29;20044;-74
2021/11/26 07:16:38;;;;;;;59.63;32.45;;;;;;;1.14;100.00;98397.66;4907794;29;20037;-74
2021/11/26 07:19:22;;;;;;;59.80;33.90;;;;;;;1.22;100.00;98404.47;4906241;29;20064;-74
2021/11/26 07:22:07;;;;;;;66.32;34.10;;;;;;;1.32;100.00;98408.66;4905923;29;20427;-75
2021/11/26 07:24:52;;;;;;;66.20;35.65;;;;;;;1.36;100.00;98411.16;4905848;29;20104;-74
2021/11/26 07:27:36;;;;;;;71.30;39.05;;;;;;;1.31;100.00;98409.53;4921148;29;20051;-74
2021/11/26 07:30:21;;;;;;;71.07;39.35;;;;;;;1.39;100.00;98413.72;4909381;29;20067;-74
2021/11/26 07:33:06;;;;;;;58.53;34.20;;;;;;;1.38;100.00;98401.69;4921830;29;20421;-74
2021/11/26 07:35:50;;;;;;;65.82;36.67;;;;;;;1.42;100.00;98399.94;4904980;29;20108;-76
2021/11/26 07:38:35;;;;;;;83.40;48.42;;;;;;;1.48;100.00;98394.72;4921386;29;20044;-76
2021/11/26 07:41:19;;;;;;;67.95;39.35;;;;;;;1.47;100.00;98392.16;4907259;29;20044;-76
2021/11/26 07:44:05;;;;;;;56.35;34.25;;;;;;;1.40;100.00;98393.97;4907152;29;20059;-76
2021/11/26 07:46:49;;;;;;;56.95;31.73;;;;;;;1.41;100.00;98395.66;4921110;29;20052;-77
2021/11/26 07:49:34;;;;;;;45.30;27.35;;;;;;;1.36;100.00;98406.00;4923288;29;20052;-77
2021/11/26 07:52:19;;;;;;;43.67;24.98;;;;;;;1.48;100.00;98401.59;4922340;29;20051;-76
2021/11/26 07:55:05;;;;;;;51.25;27.85;;;;;;;1.37;100.00;98402.59;4893783;29;20052;-76
2021/11/26 07:57:50;;;;;;;48.95;25.67;;;;;;;1.47;100.00;98405.91;4920968;29;20044;-76
2021/11/26 08:00:34;;;;;;;46.20;25.90;;;;;;;1.45;100.00;98420.56;4920919;29;20084;-77
2021/11/26 08:03:21;;;;;;;51.72;29.05;;;;;;;1.48;100.00;98409.34;4906950;29;20441;-76
2021/11/26 08:06:06;;;;;;;87.63;41.63;;;;;;;1.46;100.00;98418.81;4907134;29;20110;-75
2021/11/26 08:08:50;;;;;;;76.18;39.25;;;;;;;1.55;100.00;98416.16;4895246;29;20047;-74
2021/11/26 08:11:34;;;;;;;68.65;34.67;;;;;;;1.54;100.00;98406.69;4923017;29;20048;-74
2021/11/26 08:14:20;;;;;;;56.78;31.05;;;;;;;1.56;100.00;98404.94;4908488;29;20119;-75
2021/11/26 08:17:04;;;;;;;57.40;31.70;;;;;;;1.56;100.00;98400.66;4910420;29;20070;-75
2021/11/26 08:19:48;;;;;;;60.67;31.75;;;;;;;1.60;100.00;98389.44;4923565;29;20048;-75
2021/11/26 08:22:33;;;;;;;63.80;33.38;;;;;;;1.67;100.00;98391.94;4909396;29;20055;-75
2021/11/26 08:25:20;;;;;;;65.75;33.13;;;;;;;1.71;100.00;98378.97;4922988;29;20410;-75
2021/11/26 08:28:05;;;;;;;68.68;36.42;;;;;;;1.76;100.00;98387.50;4922672;29;20048;-75
2021/11/26 08:30:49;;;;;;;72.10;37.45;;;;;;;1.73;100.00;98387.56;4908932;29;20044;-75
2021/11/26 08:33:33;;;;;;;67.13;35.40;;;;;;;1.78;100.00;98387.47;4908837;29;20051;-75
2021/11/26 08:36:17;;;;;;;65.32;34.10;;;;;;;1.90;100.00;98386.50;4922354;29;20048;-77
2021/11/26 08:39:04;;;;;;;64.45;33.53;;;;;;;1.87;100.00;98389.97;4908254;29;20051;-75
2021/11/26 08:41:48;;;;;;;65.22;36.95;;;;;;;1.88;100.00;98381.31;4922684;29;20063;-75
2021/11/26 08:44:33;;;;;;;64.47;38.35;;;;;;;1.90;100.00;98371.84;4908591;29;20036;-77
2021/11/26 08:47:17;;;;;;;67.80;40.33;;;;;;;1.90;100.00;98374.44;4908340;29;20052;-77
2021/11/26 08:50:02;;;;;;;66.70;39.85;;;;;;;1.86;100.00;98368.44;4922441;29;20052;-75
2021/11/26 08:52:47;;;;;;;60.00;34.75;;;;;;;1.94;100.00;98370.06;4894853;29;20044;-76
2021/11/26 08:55:33;;;;;;;50.58;29.20;;;;;;;1.95;100.00;98364.03;4922556;29;20040;-74
2021/11/26 08:58:18;;;;;;;60.55;31.63;;;;;;;2.04;100.00;98361.31;4907728;29;20052;-74
2021/11/26 09:01:04;;;;;;;65.85;35.85;;;;;;;2.04;100.00;98345.81;4907564;29;20066;-73
2021/11/26 09:03:49;;;;;;;83.65;47.28;;;;;;;2.14;100.00;98331.91;4922121;29;20048;-73
2021/11/26 09:06:34;;;;;;;74.88;41.88;;;;;;;2.11;100.00;98334.53;4921834;29;20542;-73
2021/11/26 09:09:19;;;;;;;81.32;44.00;;;;;;;2.04;100.00;98331.19;4907432;29;20061;-72
2021/11/26 09:12:04;;;;;;;79.90;44.03;;;;;;;2.02;100.00;98329.53;4907778;29;20052;-73
2021/11/26 09:14:48;;;;;;;79.35;41.85;;;;;;;2.02;100.00;98325.19;4921347;29;20044;-73
2021/11/26 09:17:32;;;;;;;107.65;59.05;;;;;;;2.08;100.00;98324.22;4907370;29;20040;-73
2021/11/26 09:20:17;;;;;;;100.00;53.38;;;;;;;2.08;100.00;98316.47;4908096;29;20048;-73
2021/11/26 09:23:03;;;;;;;97.93;52.67;;;;;;;2.01;100.00;98313.13;4895156;29;20357;-73
2021/11/26 09:25:49;;;;;;;105.53;57.70;;;;;;;2.05;100.00;98301.91;4921241;29;20047;-73
2021/11/26 09:28:33;;;;;;;89.85;50.85;;;;;;;2.18;100.00;98296.53;4921146;29;20044;-73
2021/11/26 09:31:18;;;;;;;93.00;52.38;;;;;;;2.30;100.00;98298.94;4907185;29;20045;-73
2021/11/26 09:34:04;;;;;;;111.28;65.50;;;;;;;2.20;100.00;98294.78;4906932;29;20044;-73
2021/11/26 09:36:48;;;;;;;76.40;42.45;;;;;;;2.27;100.00;98293.81;4921002;29;20111;-73
2021/11/26 09:39:32;;;;;;;94.82;58.30;;;;;;;2.29;100.00;98282.59;4920881;29;20043;-72
2021/11/26 09:42:17;;;;;;;53.38;31.02;;;;;;;2.40;100.00;98277.22;4906752;29;20048;-73
2021/11/26 09:45:01;;;;;;;49.25;28.17;;;;;;;2.43;100.00;98266.00;4921051;29;20044;-73
2021/11/26 09:47:45;;;;;;;43.28;24.83;;;;;;;2.47;100.00;98268.53;4906821;29;20064;-73
2021/11/26 09:50:32;;;;;;;51.72;28.70;;;;;;;2.62;100.00;98254.47;4920111;29;20119;-74
2021/11/26 09:53:21;;;;;;;51.65;29.27;;;;;;;2.64;100.00;98257.03;4906799;29;20048;-73
2021/11/26 09:56:08;;;;;;;51.85;29.10;;;;;;;2.62;100.00;98245.88;4921647;29;20103;-73
2021/11/26 09:58:52;;;;;;;54.38;31.92;;;;;;;2.77;100.00;98248.19;4906553;29;20052;-73
2021/11/26 10:01:37;;;;;;;54.22;29.67;;;;;;;2.65;100.00;98249.25;4921097;29;20127;-73
2021/11/26 10:04:21;;;;;;;43.17;25.13;;;;;;;2.57;100.00;98248.53;4906770;29;20048;-73
2021/11/26 10:07:06;;;;;;;42.42;23.35;;;;;;;2.70;100.00;98244.84;4920409;29;20390;-73
2021/11/26 10:09:50;;;;;;;50.58;27.17;;;;;;;2.70;100.00;98237.09;4920460;29;20055;-73
2021/11/26 10:12:35;;;;;;;43.08;24.88;;;;;;;2.59;100.00;98233.84;4906167;29;20040;-74
2021/11/26 10:15:35;;;;;;;82.05;39.63;;;;;;;2.59;100.00;98226.09;4906482;29;20327;-75
2021/11/26 10:18:23;;;;;;;60.72;33.55;;;;;;;2.47;100.00;98226.28;4906304;29;20044;-73
2021/11/26 10:21:10;;;;;;;130.73;56.72;;;;;;;2.53;100.00;98221.03;4906503;29;20044;-73
2021/11/26 10:23:54;;;;;;;157.75;62.90;;;;;;;2.54;100.00;98210.66;4906304;29;20358;-73
2021/11/26 10:26:39;;;;;;;194.77;72.40;;;;;;;2.61;100.00;98202.81;4920608;29;20043;-73
2021/11/26 10:29:32;;;;;;;124.25;54.72;;;;;;;2.66;100.00;98203.56;4920631;29;20044;-73
2021/11/26 10:32:17;;;;;;;70.38;35.45;;;;;;;2.57;100.00;98194.25;4906208;29;20044;-73
2021/11/26 10:35:01;;;;;;;117.63;43.05;;;;;;;2.65;100.00;98200.13;4919993;29;20078;-73
2021/11/26 10:38:08;;;;;;;129.27;48.25;;;;;;;2.50;100.00;98196.09;4905905;29;20044;-74
2021/11/26 10:41:03;;;;;;;114.47;47.78;;;;;;;2.41;100.00;98188.50;4906116;29;20074;-75
2021/11/26 10:50:19;;;;;;;63.15;33.90;;;;;;;2.50;100.00;98183.19;4920016;29;20441;-73
2021/11/26 11:01:47;;;;;;;71.43;37.38;;;;;;;2.24;100.00;98156.94;4902750;29;20063;-73
2021/11/26 11:04:31;;;;;;;87.15;42.35;;;;;;;2.46;100.00;98157.41;4923352;29;20353;-74
2021/11/26 11:07:17;;;;;;;72.55;37.50;;;;;;;2.25;100.00;98146.59;4923933;29;20052;-73
2021/11/26 11:10:02;;;;;;;60.67;33.28;;;;;;;2.18;100.00;98147.59;4922645;29;20645;-73
2021/11/26 11:12:46;;;;;;;64.82;33.03;;;;;;;2.16;100.00;98143.31;4907929;29;20044;-73
2021/11/26 11:15:31;;;;;;;59.00;32.60;;;;;;;2.10;100.00;98142.53;4908431;29;20430;-74
2021/11/26 11:18:16;;;;;;;73.18;37.05;;;;;;;2.05;100.00;98134.03;4922883;29;20078;-75
2021/11/26 11:21:00;;;;;;;62.28;32.30;;;;;;;2.07;100.00;98126.25;4908796;29;20048;-75
2021/11/26 11:23:44;;;;;;;62.58;32.50;;;;;;;2.07;100.00;98123.66;4908744;29;20051;-75
2021/11/26 11:26:29;;;;;;;107.05;48.95;;;;;;;2.20;100.00;98114.81;4908728;29;20044;-73
2021/11/26 11:29:25;;;;;;;93.22;41.63;;;;;;;2.20;100.00;98119.13;4907556;29;20048;-74
2021/11/26 11:32:10;;;;;;;98.90;44.65;;;;;;;2.15;100.00;98105.47;4921333;29;20603;-73
2021/11/26 11:34:55;;;;;;;82.97;39.13;;;;;;;2.22;100.00;98107.91;4894193;29;20044;-73
2021/11/26 11:37:41;;;;;;;67.20;33.60;;;;;;;2.11;100.00;98104.63;4907296;29;20051;-73
2021/11/26 11:40:31;;;;;;;63.70;32.55;;;;;;;2.09;100.00;98098.66;4921297;29;20076;-73
2021/11/26 11:43:21;;;;;;;64.53;34.70;;;;;;;2.09;100.00;98086.59;4923304;29;20048;-73
2021/11/26 11:46:06;;;;;;;83.25;42.15;;;;;;;2.20;100.00;98076.06;4909354;29;20091;-73
2021/11/26 11:48:53;;;;;;;76.32;37.58;;;;;;;2.20;100.00;98075.22;4923285;29;20107;-73
2021/11/26 11:51:39;;;;;;;100.22;45.75;;;;;;;2.31;100.00;98078.47;4909362;29;20055;-73
2021/11/26 11:54:36;;;;;;;76.78;37.55;;;;;;;2.23;100.00;98068.25;4923426;29;20054;-73
2021/11/26 11:57:26;;;;;;;74.88;39.42;;;;;;;2.19;100.00;98068.34;4895667;29;20044;-73
2021/11/26 12:00:18;;;;;;;80.65;42.17;;;;;;;2.22;100.00;98068.28;4909399;29;20068;-73
2021/11/26 12:03:09;;;;;;;87.07;41.85;;;;;;;2.14;100.00;98063.25;4922709;29;20052;-73
2021/11/26 12:06:00;;;;;;;80.82;36.95;;;;;;;2.19;100.00;98058.88;4909415;29;20056;-73
2021/11/26 12:08:54;;;;;;;114.57;55.78;;;;;;;2.25;100.00;98061.34;4895391;29;20413;-73
2021/11/26 12:11:40;;;;;;;90.30;46.13;;;;;;;2.21;100.00;98045.91;4908538;29;20048;-73
2021/11/26 12:14:24;;;;;;;77.55;39.10;;;;;;;2.29;100.00;98038.88;4895328;29;20048;-73
2021/11/26 12:17:14;;;;;;;91.80;43.67;;;;;;;2.40;100.00;98043.81;4922954;29;20040;-73
2021/11/26 12:20:26;;;;;;;74.18;36.53;;;;;;;2.35;100.00;98025.81;4922983;29;20382;-73
2021/11/26 12:23:15;;;;;;;95.40;49.22;;;;;;;2.36;100.00;98026.69;4908598;29;20131;-73
2021/11/26 12:26:12;;;;;;;74.10;39.65;;;;;;;2.30;100.00;98020.75;4922292;29;20365;-73
2021/11/26 12:29:00;;;;;;;61.92;34.47;;;;;;;2.30;100.00;98017.31;4922451;29;20115;-73
2021/11/26 12:31:45;;;;;;;86.68;43.63;;;;;;;2.28;100.00;98016.50;4922703;29;20044;-73
2021/11/26 12:34:39;;;;;;;79.35;41.40;;;;;;;2.31;100.00;98006.97;4922406;29;20068;-73
2021/11/26 12:37:32;;;;;;;78.78;40.72;;;;;;;2.38;100.00;98014.59;4908114;29;20362;-72
2021/11/26 12:40:16;;;;;;;66.53;37.28;;;;;;;2.32;100.00;98000.06;4922615;29;20500;-73
2021/11/26 12:43:03;;;;;;;80.75;40.25;;;;;;;2.36;100.00;98000.84;4908580;29;20048;-73
2021/11/26 12:45:48;;;;;;;78.32;41.08;;;;;;;2.40;100.00;97999.88;4908200;29;20060;-73
2021/11/26 12:48:36;;;;;;;84.55;49.60;;;;;;;2.49;100.00;97997.94;4908073;29;20121;-72
2021/11/26 12:51:31;;;;;;;83.28;47.55;;;;;;;2.53;100.00;97993.56;4922110;29;20438;-72
2021/11/26 12:54:24;;;;;;;80.53;42.28;;;;;;;2.60;100.00;97986.53;4921681;29;20460;-72
2021/11/26 12:57:33;;;;;;;100.85;51.53;;;;;;;2.43;100.00;97980.00;4922063;29;20059;-72
2021/11/26 13:00:17;;;;;;;80.40;44.97;;;;;;;2.28;100.00;97978.59;4921925;29;20048;-72
2021/11/26 13:03:09;;;;;;;93.75;47.00;;;;;;;2.28;100.00;97976.00;4922227;29;20131;-72
2021/11/26 13:05:57;;;;;;;88.05;44.00;;;;;;;2.24;100.00;97971.81;4907666;29;20044;-72
2021/11/26 13:08:41;;;;;;;100.80;45.22;;;;;;;2.22;100.00;97970.97;4907657;29;20115;-72
2021/11/26 13:11:27;;;;;;;118.85;57.15;;;;;;;2.14;100.00;97962.50;4907388;29;20141;-73
2021/11/26 13:14:12;;;;;;;116.95;52.47;;;;;;;2.21;100.00;97961.53;4894126;29;20039;-72